createdAt,value
2018-03-14T00:01:40.065Z,9.00
2018-03-14T00:04:07.543Z,8.93
2018-03-14T00:06:35.145Z,8.85
2018-03-14T00:09:03.374Z,8.80
2018-03-14T00:11:30.832Z,8.45
2018-03-14T00:13:58.321Z,8.25
2018-03-14T00:16:25.882Z,9.02
2018-03-14T00:18:54.121Z,10.68
2018-03-14T00:21:21.588Z,9.00
2018-03-14T00:23:49.061Z,10.05
2018-03-14T00:26:16.641Z,10.23
2018-03-14T00:28:45.367Z,10.43
2018-03-14T00:31:12.832Z,10.93
2018-03-14T00:33:40.309Z,11.12
2018-03-14T00:36:07.788Z,11.70
2018-03-14T00:38:35.258Z,10.65
2018-03-14T00:41:03.514Z,11.07
2018-03-14T00:43:30.984Z,10.18
2018-03-14T00:45:59.250Z,9.52
2018-03-14T00:48:26.803Z,10.95
2018-03-14T00:50:54.264Z,10.80
2018-03-14T00:53:21.733Z,11.43
2018-03-14T00:55:49.956Z,11.35
2018-03-14T00:58:17.453Z,11.60
2018-03-14T01:00:45.019Z,10.60
2018-03-14T01:03:12.576Z,9.73
2018-03-14T01:05:40.818Z,11.70
2018-03-14T01:08:08.308Z,12.30
2018-03-14T01:10:36.556Z,10.80
2018-03-14T01:13:04.043Z,10.10
2018-03-14T01:15:31.601Z,10.52
2018-03-14T01:17:59.078Z,10.63
2018-03-14T01:20:26.566Z,10.55
2018-03-14T01:22:54.073Z,10.25
2018-03-14T01:25:21.580Z,10.30
2018-03-14T01:27:49.052Z,10.38
2018-03-14T01:30:16.648Z,10.10
2018-03-14T01:32:44.886Z,8.98
2018-03-14T01:35:12.354Z,9.35
2018-03-14T01:37:39.826Z,9.57
2018-03-14T01:40:07.306Z,10.13
2018-03-14T01:42:35.666Z,8.05
2018-03-14T01:45:03.232Z,10.18
2018-03-14T01:47:31.462Z,9.00
2018-03-14T01:49:58.977Z,9.95
2018-03-14T01:52:26.445Z,8.70
2018-03-14T01:54:53.995Z,8.35
2018-03-14T01:57:21.470Z,9.73
2018-03-14T01:59:48.986Z,8.68
2018-03-14T02:02:16.540Z,9.50
2018-03-14T02:04:44.105Z,9.50
2018-03-14T02:07:12.382Z,9.82
2018-03-14T02:09:40.649Z,7.95
2018-03-14T02:12:08.225Z,7.97
2018-03-14T02:14:36.462Z,7.93
2018-03-14T02:17:03.946Z,8.95
2018-03-14T02:19:31.507Z,8.73
2018-03-14T02:21:59.066Z,7.72
2018-03-14T02:24:27.334Z,7.70
2018-03-14T02:26:55.606Z,8.55
2018-03-14T02:29:23.071Z,7.57
2018-03-14T02:31:50.627Z,7.00
2018-03-14T02:34:18.194Z,7.25
2018-03-14T02:36:58.445Z,6.80
2018-03-14T02:39:26.006Z,6.55
2018-03-14T02:41:54.241Z,7.03
2018-03-14T02:44:21.749Z,6.65
2018-03-14T02:46:49.978Z,6.15
2018-03-14T02:49:17.462Z,6.10
2018-03-14T02:51:45.027Z,7.12
2018-03-14T02:54:12.582Z,6.40
2018-03-14T02:56:40.139Z,6.60
2018-03-14T02:59:07.606Z,6.15
2018-03-14T03:01:35.069Z,5.12
2018-03-14T03:04:03.306Z,6.50
2018-03-14T03:06:30.768Z,6.60
2018-03-14T03:08:58.230Z,6.15
2018-03-14T03:11:25.807Z,6.95
2018-03-14T03:13:53.274Z,5.70
2018-03-14T03:16:21.646Z,6.40
2018-03-14T03:18:49.102Z,5.95
2018-03-14T03:21:16.582Z,6.37
2018-03-14T03:23:44.880Z,6.62
2018-03-14T03:26:12.341Z,6.72
2018-03-14T03:28:39.814Z,6.07
2018-03-14T03:31:07.283Z,6.85
2018-03-14T03:33:34.758Z,7.20
2018-03-14T03:36:02.249Z,7.65
2018-03-14T03:38:29.722Z,6.15
2018-03-14T03:40:57.230Z,6.60
2018-03-14T03:43:24.701Z,7.55
2018-03-14T03:45:52.925Z,7.07
2018-03-14T03:48:20.421Z,6.07
2018-03-14T03:50:47.978Z,6.22
2018-03-14T03:53:15.450Z,6.80
2018-03-14T03:55:43.673Z,6.60
2018-03-14T03:58:11.169Z,6.85
2018-03-14T04:00:38.736Z,6.78
2018-03-14T04:03:06.149Z,7.72
2018-03-14T04:05:33.605Z,6.68
2018-03-14T04:08:01.075Z,6.75
2018-03-14T04:10:28.535Z,7.40
2018-03-14T04:12:56.025Z,7.30
2018-03-14T04:15:24.258Z,6.75
2018-03-14T04:17:51.713Z,6.10
2018-03-14T04:20:19.182Z,6.47
2018-03-14T04:22:46.637Z,6.55
2018-03-14T04:25:14.098Z,6.32
2018-03-14T04:27:41.614Z,5.72
2018-03-14T04:30:09.077Z,6.28
2018-03-14T04:32:36.530Z,5.75
2018-03-14T04:35:03.998Z,5.55
2018-03-14T04:37:31.464Z,6.45
2018-03-14T04:39:58.923Z,6.25
2018-03-14T04:42:26.389Z,6.07
2018-03-14T04:44:53.961Z,6.97
2018-03-14T04:47:21.522Z,5.80
2018-03-14T04:49:49.758Z,6.60
2018-03-14T04:52:17.254Z,5.10
2018-03-14T04:54:44.815Z,5.78
2018-03-14T04:57:12.377Z,4.75
2018-03-14T04:59:39.938Z,5.20
2018-03-14T05:02:07.401Z,5.85
2018-03-14T05:04:35.669Z,5.15
2018-03-14T05:07:03.138Z,5.22
2018-03-14T05:09:31.361Z,5.55
2018-03-14T05:11:58.856Z,5.43
2018-03-14T05:14:26.333Z,5.12
2018-03-14T05:16:54.561Z,5.20
2018-03-14T05:19:22.062Z,4.37
2018-03-14T05:21:50.313Z,4.60
2018-03-14T05:24:17.770Z,5.35
2018-03-14T05:26:45.257Z,4.85
2018-03-14T05:29:12.786Z,5.45
2018-03-14T05:31:40.254Z,5.60
2018-03-14T05:34:07.709Z,4.45
2018-03-14T05:36:35.165Z,4.70
2018-03-14T05:39:02.823Z,4.30
2018-03-14T05:41:30.281Z,4.55
2018-03-14T05:43:57.793Z,5.45
2018-03-14T05:46:25.290Z,5.00
2018-03-14T05:48:52.761Z,5.30
2018-03-14T05:51:21.181Z,5.45
2018-03-14T05:53:48.736Z,5.07
2018-03-14T05:56:16.198Z,4.82
2018-03-14T05:58:43.677Z,4.03
2018-03-14T06:01:11.133Z,4.68
2018-03-14T06:03:38.613Z,5.07
2018-03-14T06:06:06.075Z,5.18
2018-03-14T06:08:33.529Z,5.55
2018-03-14T06:11:00.998Z,4.15
2018-03-14T06:13:29.259Z,5.12
2018-03-14T06:15:56.727Z,5.25
2018-03-14T06:18:24.958Z,5.40
2018-03-14T06:20:52.421Z,5.45
2018-03-14T06:23:19.883Z,4.35
2018-03-14T06:25:47.412Z,4.57
2018-03-14T06:28:14.916Z,4.65
2018-03-14T06:30:42.528Z,4.90
2018-03-14T06:33:10.038Z,4.40
2018-03-14T06:35:37.586Z,4.32
2018-03-14T06:38:05.043Z,4.82
2018-03-14T06:40:32.503Z,4.32
2018-03-14T06:42:59.971Z,5.50
2018-03-14T06:45:27.518Z,5.85
2018-03-14T06:47:55.082Z,5.22
2018-03-14T06:50:22.537Z,5.47
2018-03-14T06:52:50.001Z,5.85
2018-03-14T06:55:17.546Z,5.65
2018-03-14T06:57:45.013Z,5.80
2018-03-14T07:03:24.987Z,6.55
2018-03-14T07:06:07.090Z,6.18
2018-03-14T07:08:35.562Z,6.57
2018-03-14T07:11:03.641Z,5.35
2018-03-14T07:13:31.323Z,6.32
2018-03-14T07:15:58.857Z,6.65
2018-03-14T07:18:26.470Z,5.45
2018-03-14T07:20:54.025Z,6.10
2018-03-14T07:23:21.481Z,5.80
2018-03-14T07:25:49.065Z,6.93
2018-03-14T07:28:16.617Z,7.32
2018-03-14T07:30:44.162Z,5.85
2018-03-14T07:33:11.778Z,5.80
2018-03-14T07:35:39.330Z,5.85
2018-03-14T07:38:07.809Z,6.32
2018-03-14T07:40:35.394Z,6.93
2018-03-14T07:43:03.016Z,7.40
2018-03-14T07:45:30.578Z,7.35
2018-03-14T07:47:58.268Z,7.12
2018-03-14T07:50:26.598Z,6.87
2018-03-14T07:52:54.244Z,7.18
2018-03-14T07:55:21.818Z,7.22
2018-03-14T07:57:49.459Z,6.60
2018-03-14T08:00:17.070Z,6.35
2018-03-14T08:02:44.660Z,7.65
2018-03-14T08:05:12.223Z,8.50
2018-03-14T08:07:39.824Z,7.35
2018-03-14T08:10:07.385Z,7.85
2018-03-14T08:12:34.933Z,7.65
2018-03-14T08:15:02.512Z,7.80
2018-03-14T08:17:30.124Z,8.50
2018-03-14T08:19:57.691Z,8.75
2018-03-14T08:22:25.233Z,8.27
2018-03-14T08:24:52.787Z,6.90
2018-03-14T08:27:20.369Z,8.43
2018-03-14T08:29:47.981Z,9.57
2018-03-14T08:32:15.649Z,7.60
2018-03-14T08:34:43.967Z,9.48
2018-03-14T08:37:11.573Z,9.65
2018-03-14T08:39:39.141Z,8.60
2018-03-14T08:42:07.554Z,9.60
2018-03-14T08:44:35.163Z,9.02
2018-03-14T08:47:02.758Z,9.20
2018-03-14T08:49:30.428Z,8.75
2018-03-14T08:51:58.000Z,8.88
2018-03-14T08:54:25.566Z,9.73
2018-03-14T08:56:52.966Z,9.38
2018-03-14T08:59:21.231Z,10.05
2018-03-14T09:01:49.509Z,9.93
2018-03-14T09:04:17.745Z,9.50
2018-03-14T09:06:45.241Z,9.93
2018-03-14T09:09:12.722Z,10.07
2018-03-14T09:11:40.963Z,10.45
2018-03-14T09:14:08.446Z,10.00
2018-03-14T09:16:36.694Z,9.45
2018-03-14T09:19:04.269Z,9.15
2018-03-14T09:21:31.726Z,9.45
2018-03-14T09:23:59.310Z,8.98
2018-03-14T09:26:27.541Z,9.85
2018-03-14T09:28:55.001Z,8.57
2018-03-14T09:31:22.577Z,9.73
2018-03-14T09:33:50.042Z,9.20
2018-03-14T09:36:18.302Z,9.70
2018-03-14T09:38:45.766Z,8.90
2018-03-14T09:41:13.246Z,9.13
2018-03-14T09:43:41.501Z,9.25
2018-03-14T09:46:08.967Z,9.45
2018-03-14T09:48:37.230Z,9.55
2018-03-14T09:51:04.700Z,9.77
2018-03-14T09:53:32.958Z,8.50
2018-03-14T09:56:00.429Z,9.35
2018-03-14T09:58:28.742Z,8.40
2018-03-14T10:00:56.226Z,8.82
2018-03-14T10:03:23.695Z,7.50
2018-03-14T10:05:51.165Z,7.28
2018-03-14T10:08:18.640Z,8.20
2018-03-14T10:10:46.889Z,7.55
2018-03-14T10:13:14.348Z,8.90
2018-03-14T10:15:41.825Z,8.73
2018-03-14T10:18:10.100Z,8.13
2018-03-14T10:20:38.410Z,7.87
2018-03-14T10:23:05.866Z,7.12
2018-03-14T10:25:33.390Z,7.43
2018-03-14T10:28:00.829Z,8.20
2018-03-14T10:30:29.061Z,7.72
2018-03-14T10:32:56.533Z,7.62
2018-03-14T10:35:24.005Z,7.78
2018-03-14T10:37:51.477Z,8.15
2018-03-14T10:40:18.938Z,7.72
2018-03-14T10:42:46.420Z,8.25
2018-03-14T10:45:13.945Z,7.65
2018-03-14T10:47:41.435Z,8.20
2018-03-14T10:50:08.962Z,8.82
2018-03-14T10:52:36.436Z,7.45
2018-03-14T10:55:04.700Z,7.85
2018-03-14T10:57:32.201Z,9.35
2018-03-14T10:59:59.656Z,8.32
2018-03-14T11:02:31.685Z,9.23
2018-03-14T11:04:59.908Z,8.80
2018-03-14T11:07:27.401Z,8.50
2018-03-14T11:09:54.953Z,7.65
2018-03-14T11:12:22.413Z,8.25
2018-03-14T11:14:49.970Z,7.35
2018-03-14T11:17:17.553Z,7.70
2018-03-14T11:19:45.809Z,8.50
2018-03-14T11:22:13.306Z,8.80
2018-03-14T11:24:40.781Z,8.77
2018-03-14T11:27:08.246Z,8.18
2018-03-14T11:29:35.782Z,9.48
2018-03-14T11:32:03.293Z,7.97
2018-03-14T11:34:32.265Z,10.32
2018-03-14T11:36:59.799Z,9.10
2018-03-14T11:39:27.310Z,9.65
2018-03-14T11:41:54.870Z,10.10
2018-03-14T11:44:22.346Z,7.93
2018-03-14T11:46:50.564Z,7.35
2018-03-14T11:49:18.106Z,7.00
2018-03-14T11:51:45.571Z,8.52
2018-03-14T11:54:13.068Z,7.25
2018-03-14T11:56:40.734Z,7.43
2018-03-14T11:59:08.201Z,8.98
2018-03-14T12:01:36.518Z,7.32
2018-03-14T12:04:04.100Z,7.57
2018-03-14T12:06:32.087Z,8.77
2018-03-14T12:08:59.558Z,9.43
2018-03-14T12:11:27.926Z,8.10
2018-03-14T12:13:55.514Z,8.63
2018-03-14T12:16:23.575Z,7.95
2018-03-14T12:18:52.492Z,8.60
2018-03-14T12:21:20.342Z,8.13
2018-03-14T12:23:47.811Z,8.23
2018-03-14T12:26:15.420Z,8.55
2018-03-14T12:28:43.052Z,8.23
2018-03-14T12:31:10.631Z,8.18
2018-03-14T12:33:38.189Z,8.20
2018-03-14T12:36:05.658Z,8.57
2018-03-14T12:38:33.230Z,8.52
2018-03-14T12:41:00.681Z,8.98
2018-03-14T12:43:28.959Z,9.75
2018-03-14T12:45:57.233Z,9.77
2018-03-14T12:48:24.791Z,9.18
2018-03-14T12:50:52.247Z,8.68
2018-03-14T12:53:19.798Z,8.50
2018-03-14T12:55:47.314Z,8.85
2018-03-14T12:58:14.817Z,8.55
2018-03-14T13:00:43.049Z,10.48
2018-03-14T13:03:10.529Z,7.75
2018-03-14T13:05:37.989Z,8.45
2018-03-14T13:08:05.474Z,9.07
2018-03-14T13:10:32.944Z,9.25
2018-03-14T13:13:01.204Z,8.05
2018-03-14T13:15:28.995Z,8.40
2018-03-14T13:17:56.620Z,8.20
2018-03-14T13:20:24.911Z,8.95
2018-03-14T13:22:53.174Z,7.80
2018-03-14T13:25:20.650Z,9.18
2018-03-14T13:27:48.958Z,8.75
2018-03-14T13:30:16.563Z,8.23
2018-03-14T13:32:44.030Z,8.85
2018-03-14T13:35:11.528Z,7.82
2018-03-14T13:37:38.986Z,8.32
2018-03-14T13:40:06.450Z,7.10
2018-03-14T13:42:33.917Z,8.25
2018-03-14T13:45:01.410Z,7.30
2018-03-14T13:47:28.890Z,7.80
2018-03-14T13:49:57.110Z,7.62
2018-03-14T13:52:24.597Z,7.72
2018-03-14T13:54:52.098Z,8.05
2018-03-14T13:57:19.564Z,7.47
2018-03-14T13:59:47.070Z,8.32
2018-03-14T14:02:14.537Z,7.53
2018-03-14T14:04:42.766Z,8.30
2018-03-14T14:07:10.239Z,7.62
2018-03-14T14:09:37.693Z,7.28
2018-03-14T14:12:05.166Z,7.50
2018-03-14T14:14:32.626Z,8.10
2018-03-14T14:17:00.102Z,7.18
2018-03-14T14:19:28.338Z,6.28
2018-03-14T14:21:55.819Z,6.00
2018-03-14T14:24:23.269Z,6.15
2018-03-14T14:26:50.825Z,6.32
2018-03-14T14:29:18.289Z,6.57
2018-03-14T14:31:45.758Z,7.28
2018-03-14T14:34:14.050Z,6.37
2018-03-14T14:36:41.514Z,6.12
2018-03-14T14:39:08.969Z,6.22
2018-03-14T14:41:36.468Z,5.90
2018-03-14T14:44:03.921Z,5.95
2018-03-14T14:46:31.385Z,6.62
2018-03-14T14:48:58.857Z,6.10
2018-03-14T14:51:26.312Z,5.97
2018-03-14T14:53:53.873Z,6.43
2018-03-14T14:56:21.330Z,5.50
2018-03-14T14:58:48.902Z,6.30
2018-03-14T15:01:16.370Z,6.47
2018-03-14T15:03:44.625Z,6.00
2018-03-14T15:06:12.182Z,6.37
2018-03-14T15:08:39.662Z,5.50
2018-03-14T15:11:07.910Z,5.68
2018-03-14T15:13:35.385Z,5.62
2018-03-14T15:16:03.617Z,5.95
2018-03-14T15:18:31.097Z,5.55
2018-03-14T15:20:58.657Z,5.22
2018-03-14T15:23:26.217Z,5.18
2018-03-14T15:25:53.673Z,5.37
2018-03-14T15:28:21.177Z,4.93
2018-03-14T15:30:48.638Z,4.78
2018-03-14T15:33:16.104Z,4.90
2018-03-14T15:35:43.581Z,4.18
2018-03-14T15:38:11.041Z,5.40
2018-03-14T15:40:38.497Z,5.25
2018-03-14T15:43:06.028Z,4.80
2018-03-14T15:45:33.493Z,4.50
2018-03-14T15:48:00.997Z,5.47
2018-03-14T15:50:29.238Z,4.55
2018-03-14T15:52:56.709Z,4.93
2018-03-14T15:55:24.169Z,4.07
2018-03-14T15:57:51.629Z,4.78
2018-03-14T16:00:19.098Z,4.15
2018-03-14T16:02:48.117Z,5.10
2018-03-14T16:05:16.419Z,4.57
2018-03-14T16:07:43.881Z,5.43
2018-03-14T16:10:11.381Z,5.87
2018-03-14T16:12:38.858Z,7.18
2018-03-14T16:15:07.082Z,6.60
2018-03-14T16:17:34.554Z,5.95
2018-03-14T16:20:02.015Z,6.07
2018-03-14T16:22:29.479Z,5.47
2018-03-14T16:24:57.196Z,6.43
2018-03-14T16:27:24.814Z,5.22
2018-03-14T16:29:53.038Z,5.60
2018-03-14T16:32:20.505Z,5.35
2018-03-14T16:34:48.806Z,5.35
2018-03-14T16:37:16.279Z,6.35
2018-03-14T16:39:44.505Z,5.80
2018-03-14T16:42:11.979Z,5.60
2018-03-14T16:44:39.557Z,5.85
2018-03-14T16:47:07.036Z,6.18
2018-03-14T16:49:35.261Z,5.97
2018-03-14T16:52:02.755Z,5.97
2018-03-14T16:54:30.979Z,6.80
2018-03-14T16:56:58.479Z,6.10
2018-03-14T16:59:26.031Z,6.00
2018-03-14T17:01:54.314Z,7.18
2018-03-14T17:04:21.778Z,7.20
2018-03-14T17:06:50.025Z,6.40
2018-03-14T17:09:17.493Z,7.45
2018-03-14T17:11:45.058Z,7.53
2018-03-14T17:14:12.731Z,8.07
2018-03-14T17:16:40.964Z,7.45
2018-03-14T17:19:08.456Z,7.60
2018-03-14T17:21:35.926Z,6.85
2018-03-14T17:24:04.166Z,7.25
2018-03-14T17:26:31.650Z,7.40
2018-03-14T17:28:59.107Z,7.80
2018-03-14T17:31:27.352Z,6.20
2018-03-14T17:33:54.830Z,6.47
2018-03-14T17:36:22.336Z,6.45
2018-03-14T17:38:50.543Z,6.05
2018-03-14T17:41:18.005Z,5.90
2018-03-14T17:43:45.513Z,6.80
2018-03-14T17:46:13.775Z,7.10
2018-03-14T17:48:41.985Z,5.43
2018-03-14T17:51:09.442Z,5.68
2018-03-14T17:53:36.901Z,5.65
2018-03-14T17:56:04.649Z,5.65
2018-03-14T17:58:32.113Z,5.30
2018-03-14T18:00:59.592Z,6.90
2018-03-14T18:03:27.082Z,6.47
2018-03-14T18:05:55.306Z,6.15
2018-03-14T18:08:22.820Z,6.30
2018-03-14T18:10:50.366Z,6.18
2018-03-14T18:13:17.833Z,6.15
2018-03-14T18:15:46.066Z,6.37
2018-03-14T18:18:13.534Z,6.40
2018-03-14T18:20:41.133Z,6.72
2018-03-14T18:23:08.673Z,6.85
2018-03-14T18:25:36.194Z,6.60
2018-03-14T18:28:03.649Z,6.35
2018-03-14T18:30:31.142Z,7.62
2018-03-14T18:32:58.693Z,7.10
2018-03-14T18:35:26.254Z,6.60
2018-03-14T18:37:53.709Z,7.43
2018-03-14T18:40:21.173Z,6.60
2018-03-14T18:42:48.787Z,7.78
2018-03-14T18:45:16.302Z,7.60
2018-03-14T18:47:44.536Z,7.60
2018-03-14T18:50:12.010Z,8.13
2018-03-14T18:52:39.582Z,9.10
2018-03-14T18:55:07.919Z,10.20
2018-03-14T18:57:35.385Z,9.00
2018-03-14T19:00:02.857Z,8.60
2018-03-14T19:02:30.337Z,8.48
2018-03-14T19:04:58.569Z,9.30
2018-03-14T19:07:26.160Z,8.90
2018-03-14T19:09:53.716Z,9.65
2018-03-14T19:12:21.188Z,8.43
2018-03-14T19:14:49.417Z,9.40
2018-03-14T19:17:16.898Z,8.20
2018-03-14T19:19:44.358Z,8.20
2018-03-14T19:22:11.846Z,7.90
2018-03-14T19:24:40.105Z,9.43
2018-03-14T19:27:08.339Z,9.23
2018-03-14T19:29:35.798Z,8.18
2018-03-14T19:32:03.337Z,8.40
2018-03-14T19:34:30.806Z,9.13
2018-03-14T19:36:58.262Z,8.90
2018-03-14T19:39:25.757Z,8.02
2018-03-14T19:41:53.310Z,8.38
2018-03-14T19:44:20.873Z,7.90
2018-03-14T19:46:48.358Z,8.73
2018-03-14T19:49:16.585Z,7.80
2018-03-14T19:51:44.078Z,8.68
2018-03-14T19:54:12.331Z,7.57
2018-03-14T19:56:39.802Z,8.40
2018-03-14T19:59:07.359Z,7.75
2018-03-14T20:01:35.689Z,7.90
2018-03-14T20:04:03.202Z,6.70
2018-03-14T20:06:31.438Z,7.78
2018-03-14T20:08:58.970Z,7.05
2018-03-14T20:11:26.423Z,7.47
2018-03-14T20:13:53.884Z,7.53
2018-03-14T20:16:21.465Z,6.93
2018-03-14T20:18:48.942Z,7.82
2018-03-14T20:21:16.410Z,6.40
2018-03-14T20:23:43.962Z,6.72
2018-03-14T20:26:11.522Z,6.82
2018-03-14T20:28:38.985Z,7.55
2018-03-14T20:31:06.552Z,7.60
2018-03-14T20:33:34.777Z,7.30
2018-03-14T20:36:02.267Z,7.65
2018-03-14T20:38:29.728Z,6.68
2018-03-14T20:40:57.236Z,5.97
2018-03-14T20:43:24.693Z,6.32
2018-03-14T20:45:52.197Z,7.78
2018-03-14T20:48:19.754Z,6.80
2018-03-14T20:50:47.326Z,7.55
2018-03-14T20:53:14.801Z,8.23
2018-03-14T20:55:43.051Z,7.68
2018-03-14T20:58:10.622Z,8.25
2018-03-14T21:00:38.898Z,8.27
2018-03-14T21:03:06.361Z,9.25
2018-03-14T21:05:34.595Z,9.80
2018-03-14T21:08:02.070Z,8.88
2018-03-14T21:10:29.545Z,9.50
2018-03-14T21:12:57.798Z,9.25
2018-03-14T21:15:25.272Z,10.80
2018-03-14T21:17:52.788Z,10.15
2018-03-14T21:20:20.269Z,11.85
2018-03-14T21:22:47.758Z,10.88
2018-03-14T21:25:16.006Z,11.70
2018-03-14T21:27:43.482Z,11.23
2018-03-14T21:30:11.749Z,12.88
2018-03-14T21:32:39.302Z,12.30
2018-03-14T21:35:06.854Z,13.00
2018-03-14T21:37:34.371Z,13.10
2018-03-14T21:40:01.832Z,12.07
2018-03-14T21:42:29.301Z,11.35
2018-03-14T21:44:57.410Z,10.77
2018-03-14T21:47:24.883Z,11.68
2018-03-14T21:49:53.133Z,11.95
2018-03-14T21:52:20.594Z,11.12
2018-03-14T21:54:48.062Z,10.75
2018-03-14T21:57:19.037Z,10.57
2018-03-14T21:59:46.608Z,10.75
2018-03-14T22:02:14.017Z,9.85
2018-03-14T22:04:42.271Z,9.50
2018-03-14T22:07:09.738Z,10.73
2018-03-14T22:09:37.289Z,10.52
2018-03-14T22:12:04.786Z,10.40
2018-03-14T22:14:33.045Z,11.20
2018-03-14T22:17:01.272Z,11.35
2018-03-14T22:19:28.745Z,12.05
2018-03-14T22:21:56.309Z,10.82
2018-03-14T22:24:23.771Z,11.07
2018-03-14T22:26:51.240Z,12.88
2018-03-14T22:29:19.488Z,12.02
2018-03-14T22:31:47.061Z,10.82
2018-03-14T22:34:14.526Z,10.90
2018-03-14T22:36:42.073Z,10.10
2018-03-14T22:39:09.531Z,9.32
2018-03-14T22:41:37.086Z,9.82
2018-03-14T22:44:04.650Z,9.73
2018-03-14T22:46:32.206Z,9.60
2018-03-14T22:48:59.765Z,9.20
2018-03-14T22:51:27.229Z,7.45
2018-03-14T22:53:54.790Z,9.23
2018-03-14T22:56:22.350Z,8.85
2018-03-14T22:58:49.810Z,9.20
2018-03-14T23:01:17.269Z,8.48
2018-03-14T23:03:45.525Z,9.98
2018-03-14T23:06:13.043Z,10.75
2018-03-14T23:08:40.553Z,9.35
2018-03-14T23:11:08.821Z,9.98
2018-03-14T23:13:36.418Z,9.50
2018-03-14T23:16:03.880Z,10.30
2018-03-14T23:18:31.362Z,11.43
2018-03-14T23:20:58.845Z,9.57
2018-03-14T23:23:26.402Z,11.00
2018-03-14T23:25:53.974Z,10.05
2018-03-14T23:28:21.429Z,9.55
2018-03-14T23:30:49.039Z,12.20
2018-03-14T23:33:16.543Z,10.45
2018-03-14T23:35:44.010Z,10.43
2018-03-14T23:38:12.287Z,10.70
2018-03-14T23:40:40.599Z,11.65
2018-03-14T23:43:08.106Z,11.38
2018-03-14T23:45:35.585Z,10.25
2018-03-14T23:48:03.809Z,10.07
2018-03-14T23:50:31.334Z,12.95
2018-03-14T23:52:58.918Z,10.80
2018-03-14T23:55:26.374Z,10.90
2018-03-14T23:57:53.849Z,10.75
